Time;durP1;ratioP1;P1;durP2;ratioP2;P2;SDS_P1;SDS_P2;PMS_P1;PMS_P2;Temp;Humidity;BMP_temperature;BMP_pressure;BME280_temperature;BME280_humidity;BME280_pressure;Samples;Min_cycle;Max_cycle;Signal;HPM_P1;HPM_P2
2023/09/05 00:00:05;;;;;;;13.48;8.20;;;13.10;99.90;;;;;;5039108;28;20068;-68
2023/09/05 00:02:30;;;;;;;11.07;8.35;;;13.10;99.90;;;;;;5030253;28;20192;-68
2023/09/05 00:04:56;;;;;;;10.90;7.32;;;13.10;99.90;;;;;;5047234;28;20124;-68
2023/09/05 00:07:23;;;;;;;11.57;8.10;;;13.10;99.90;;;;;;5043898;28;20116;-68
2023/09/05 00:09:49;;;;;;;14.57;8.65;;;13.00;99.90;;;;;;5041808;28;20362;-68
2023/09/05 00:12:14;;;;;;;10.55;7.68;;;13.10;99.90;;;;;;5032388;28;20090;-71
2023/09/05 00:14:40;;;;;;;11.98;8.60;;;13.00;99.90;;;;;;5041246;28;20460;-68
2023/09/05 00:17:05;;;;;;;12.38;8.38;;;13.00;99.90;;;;;;5039188;28;20115;-68
2023/09/05 00:19:31;;;;;;;12.20;8.55;;;13.10;99.90;;;;;;5036537;28;20037;-67
2023/09/05 00:21:57;;;;;;;12.98;8.38;;;13.00;99.90;;;;;;5039005;28;20075;-68
2023/09/05 00:24:40;;;;;;;10.40;8.05;;;13.00;99.90;;;;;;5034983;28;20091;-68
2023/09/05 00:27:09;;;;;;;13.95;8.25;;;13.00;99.90;;;;;;5028963;28;20135;-68
2023/09/05 00:29:35;;;;;;;12.18;8.05;;;13.00;99.90;;;;;;5038340;28;20389;-68
2023/09/05 00:32:03;;;;;;;10.98;8.20;;;12.90;99.90;;;;;;5036181;28;20041;-68
2023/09/05 00:34:33;;;;;;;12.52;8.43;;;12.90;99.90;;;;;;5041432;28;20388;-68
2023/09/05 00:37:04;;;;;;;14.82;9.07;;;13.00;99.90;;;;;;5041322;28;20037;-69
2023/09/05 00:39:31;;;;;;;12.65;8.98;;;12.90;99.90;;;;;;5030104;28;20355;-68
2023/09/05 00:41:57;;;;;;;13.65;8.93;;;12.90;99.90;;;;;;5041024;28;20044;-68
2023/09/05 00:44:26;;;;;;;12.18;8.73;;;13.00;99.90;;;;;;5039243;28;20048;-68
2023/09/05 00:46:54;;;;;;;11.88;8.90;;;12.90;99.90;;;;;;5021566;28;20049;-67
2023/09/05 00:49:23;;;;;;;12.43;8.38;;;12.90;99.90;;;;;;5030490;28;20457;-67
2023/09/05 00:51:53;;;;;;;13.98;9.10;;;12.80;99.90;;;;;;5040520;28;20110;-68
2023/09/05 00:54:18;;;;;;;11.93;8.48;;;12.80;99.90;;;;;;5021118;28;20489;-67
2023/09/05 00:56:44;;;;;;;13.50;9.35;;;12.80;99.90;;;;;;5035801;28;20057;-68
2023/09/05 00:59:10;;;;;;;12.02;9.25;;;12.80;99.90;;;;;;5030869;28;20041;-68
2023/09/05 01:01:36;;;;;;;14.43;9.00;;;12.80;99.90;;;;;;5037208;28;20037;-68
2023/09/05 01:04:02;;;;;;;12.85;8.80;;;12.70;99.90;;;;;;5037237;28;20097;-67
2023/09/05 01:07:07;;;;;;;12.80;9.38;;;12.70;99.90;;;;;;5030073;28;20065;-67
2023/09/05 01:09:43;;;;;;;16.75;9.68;;;12.80;99.90;;;;;;5026058;28;20049;-68
2023/09/05 01:12:09;;;;;;;11.98;8.48;;;12.70;99.90;;;;;;5044876;28;20044;-68
2023/09/05 01:14:35;;;;;;;12.27;8.80;;;12.70;99.90;;;;;;5042283;28;20090;-68
2023/09/05 01:17:05;;;;;;;14.75;8.38;;;12.70;99.90;;;;;;5022340;28;20036;-67
2023/09/05 01:19:34;;;;;;;13.65;9.50;;;12.60;99.90;;;;;;5031736;28;20489;-68
2023/09/05 01:22:09;;;;;;;13.88;9.43;;;12.60;99.90;;;;;;5040122;28;20044;-68
2023/09/05 01:24:35;;;;;;;15.00;9.48;;;12.50;99.90;;;;;;5036997;28;20125;-68
2023/09/05 01:27:03;;;;;;;14.02;9.60;;;12.50;99.90;;;;;;5026842;28;20037;-68
2023/09/05 01:29:34;;;;;;;14.70;9.43;;;12.50;99.90;;;;;;5031286;28;20052;-68
2023/09/05 01:32:04;;;;;;;14.27;9.50;;;12.50;99.90;;;;;;5023886;28;20148;-68
2023/09/05 01:34:30;;;;;;;13.48;9.27;;;12.50;99.90;;;;;;5031337;28;20068;-68
2023/09/05 01:36:57;;;;;;;14.43;9.60;;;12.50;99.90;;;;;;5042168;28;20424;-69
2023/09/05 01:39:22;;;;;;;13.07;8.65;;;12.50;99.90;;;;;;5027880;28;20043;-68
2023/09/05 01:41:48;;;;;;;12.90;9.63;;;12.50;99.90;;;;;;5030383;28;20036;-68
2023/09/05 01:44:15;;;;;;;12.02;8.55;;;12.50;99.90;;;;;;5037813;28;20076;-68
2023/09/05 01:46:40;;;;;;;13.30;9.57;;;12.40;99.90;;;;;;5032686;28;20052;-68
2023/09/05 01:49:06;;;;;;;15.60;9.68;;;12.50;99.90;;;;;;5031585;28;20045;-67
2023/09/05 01:51:31;;;;;;;12.20;9.02;;;12.40;99.90;;;;;;5013803;28;20029;-67
2023/09/05 01:53:57;;;;;;;14.65;9.90;;;12.40;99.90;;;;;;5033765;28;20422;-72
2023/09/05 01:56:22;;;;;;;14.23;9.45;;;12.40;99.90;;;;;;5044511;28;20045;-67
2023/09/05 01:58:48;;;;;;;14.60;9.93;;;12.40;99.90;;;;;;5039808;28;20043;-68
2023/09/05 02:01:14;;;;;;;14.88;9.68;;;12.40;99.90;;;;;;5041639;28;20080;-68
2023/09/05 02:03:39;;;;;;;12.52;9.18;;;12.40;99.90;;;;;;5040332;28;20044;-68
2023/09/05 02:06:05;;;;;;;14.73;10.00;;;12.30;99.90;;;;;;5046217;28;20060;-67
2023/09/05 02:08:33;;;;;;;13.40;9.80;;;12.30;99.90;;;;;;5026078;28;20068;-68
2023/09/05 02:10:59;;;;;;;15.20;10.02;;;12.30;99.90;;;;;;5045159;28;20056;-68
2023/09/05 02:13:24;;;;;;;14.93;10.27;;;12.30;99.90;;;;;;5048373;28;20052;-68
2023/09/05 02:15:50;;;;;;;15.57;9.60;;;12.20;99.90;;;;;;5035707;28;20040;-68
2023/09/05 02:18:15;;;;;;;13.50;9.27;;;12.20;99.90;;;;;;5039855;28;22919;-68
2023/09/05 02:20:41;;;;;;;14.93;9.68;;;12.20;99.90;;;;;;5035840;28;20045;-68
2023/09/05 02:23:07;;;;;;;14.35;9.45;;;12.20;99.90;;;;;;5037475;28;20046;-68
2023/09/05 02:25:33;;;;;;;13.25;9.02;;;12.10;99.90;;;;;;5037764;28;20127;-68
2023/09/05 02:27:59;;;;;;;13.05;8.05;;;12.10;99.90;;;;;;5053781;28;20076;-68
2023/09/05 02:30:25;;;;;;;11.73;8.60;;;12.10;99.90;;;;;;5041675;28;20030;-68
2023/09/05 02:32:55;;;;;;;12.20;8.05;;;12.10;99.90;;;;;;5041608;28;20041;-68
2023/09/05 02:35:27;;;;;;;14.45;9.23;;;12.10;99.90;;;;;;5040321;28;20040;-68
2023/09/05 02:37:55;;;;;;;12.30;8.48;;;12.10;99.90;;;;;;5048674;28;20044;-67
2023/09/05 02:40:21;;;;;;;14.73;9.50;;;12.10;99.90;;;;;;5026174;28;20222;-68
2023/09/05 02:42:47;;;;;;;12.77;8.50;;;12.10;99.90;;;;;;5035805;28;20126;-68
2023/09/05 02:45:13;;;;;;;13.30;9.60;;;12.10;99.90;;;;;;5041949;28;20087;-68
2023/09/05 02:47:39;;;;;;;13.25;8.65;;;12.00;99.90;;;;;;5032666;28;20124;-67
2023/09/05 02:50:06;;;;;;;15.10;9.30;;;12.00;99.90;;;;;;5033770;28;20041;-68
2023/09/05 02:52:36;;;;;;;14.15;9.27;;;11.90;99.90;;;;;;5048442;28;20045;-68
2023/09/05 02:55:03;;;;;;;16.13;10.32;;;12.00;99.90;;;;;;5057852;28;20043;-68
2023/09/05 02:57:28;;;;;;;14.20;10.38;;;11.90;99.90;;;;;;5032675;28;20041;-68
2023/09/05 02:59:54;;;;;;;15.73;10.90;;;12.00;99.90;;;;;;5005885;28;20095;-68
2023/09/05 03:02:22;;;;;;;17.00;10.50;;;12.00;99.90;;;;;;5037229;28;20044;-68
2023/09/05 03:04:52;;;;;;;16.98;10.77;;;12.10;99.90;;;;;;5038948;28;20167;-67
2023/09/05 03:07:21;;;;;;;16.50;11.20;;;12.00;99.90;;;;;;5045220;28;20477;-67
2023/09/05 03:09:50;;;;;;;18.85;12.15;;;12.00;99.90;;;;;;5037930;28;20048;-67
2023/09/05 03:12:16;;;;;;;18.48;11.75;;;12.10;99.90;;;;;;5030200;28;20048;-67
2023/09/05 03:14:41;;;;;;;19.00;12.05;;;12.10;99.90;;;;;;5029268;28;20121;-68
2023/09/05 03:17:09;;;;;;;17.65;11.77;;;12.10;99.90;;;;;;5036648;28;20044;-67
2023/09/05 03:19:37;;;;;;;16.73;11.13;;;12.10;99.90;;;;;;5036887;28;20041;-67
2023/09/05 03:22:03;;;;;;;19.95;12.23;;;12.10;99.90;;;;;;5031513;28;20094;-67
2023/09/05 03:24:29;;;;;;;20.42;12.15;;;12.10;99.90;;;;;;5031219;28;20124;-68
2023/09/05 03:26:54;;;;;;;20.42;12.32;;;12.10;99.90;;;;;;5029820;28;20052;-68
2023/09/05 03:29:20;;;;;;;14.68;10.10;;;12.10;99.90;;;;;;5028737;28;20044;-67
2023/09/05 03:31:45;;;;;;;13.77;8.88;;;12.10;99.90;;;;;;5027949;28;20405;-67
2023/09/05 03:34:11;;;;;;;14.23;9.50;;;12.10;99.90;;;;;;5027263;28;20051;-67
2023/09/05 03:36:37;;;;;;;14.55;9.00;;;12.10;99.90;;;;;;5029744;28;20029;-67
2023/09/05 03:39:02;;;;;;;11.95;8.18;;;12.10;99.90;;;;;;5043786;28;20037;-67
2023/09/05 03:41:28;;;;;;;10.77;7.78;;;12.10;99.90;;;;;;5035175;28;20120;-67
2023/09/05 03:43:54;;;;;;;12.98;7.97;;;12.10;99.90;;;;;;5034845;28;20042;-67
2023/09/05 03:46:20;;;;;;;10.30;7.88;;;12.10;99.90;;;;;;5039311;28;20049;-67
2023/09/05 03:48:46;;;;;;;13.15;8.73;;;12.10;99.90;;;;;;5022199;28;20637;-67
2023/09/05 03:51:11;;;;;;;12.32;8.93;;;12.00;99.90;;;;;;5016677;28;20033;-67
2023/09/05 03:53:37;;;;;;;12.07;8.25;;;12.00;99.90;;;;;;5034195;28;20045;-67
2023/09/05 03:56:02;;;;;;;11.57;8.52;;;11.90;99.90;;;;;;5032472;28;20041;-68
2023/09/05 03:58:28;;;;;;;12.40;7.82;;;11.90;99.90;;;;;;5031742;28;20140;-67
2023/09/05 04:00:57;;;;;;;11.18;7.63;;;11.80;99.90;;;;;;5033950;28;20051;-67
2023/09/05 04:03:22;;;;;;;11.52;8.35;;;11.80;99.90;;;;;;5036770;28;20127;-67
2023/09/05 04:05:48;;;;;;;13.05;8.88;;;11.70;99.90;;;;;;5037065;28;20076;-68
2023/09/05 04:08:14;;;;;;;14.85;10.02;;;11.70;99.90;;;;;;5019677;28;20037;-67
2023/09/05 04:10:39;;;;;;;14.52;10.38;;;11.70;99.90;;;;;;5042579;28;20060;-67
2023/09/05 04:13:05;;;;;;;13.90;10.43;;;11.70;99.90;;;;;;5044351;28;20334;-67
2023/09/05 04:15:31;;;;;;;17.80;11.13;;;11.70;99.90;;;;;;5035909;28;20062;-67
2023/09/05 04:17:57;;;;;;;17.02;11.38;;;11.70;99.90;;;;;;5031501;28;20330;-67
2023/09/05 04:20:22;;;;;;;13.77;9.85;;;11.60;99.90;;;;;;5046704;28;20100;-67
2023/09/05 04:22:48;;;;;;;16.98;11.13;;;11.60;99.90;;;;;;5041374;28;20048;-67
2023/09/05 04:25:14;;;;;;;16.13;10.73;;;11.60;99.90;;;;;;5030552;28;20123;-67
2023/09/05 04:27:40;;;;;;;19.98;12.27;;;11.60;99.90;;;;;;5044816;28;20045;-67
2023/09/05 04:30:06;;;;;;;15.93;10.63;;;11.60;99.90;;;;;;5025551;28;20049;-67
2023/09/05 04:32:32;;;;;;;15.40;10.75;;;11.60;99.90;;;;;;5019122;28;20112;-68
2023/09/05 04:35:02;;;;;;;19.77;12.25;;;11.60;99.90;;;;;;5033535;28;20191;-67
2023/09/05 04:37:29;;;;;;;18.33;11.68;;;11.60;99.90;;;;;;5041596;28;20048;-67
2023/09/05 04:39:55;;;;;;;21.67;12.75;;;11.60;99.90;;;;;;5032242;28;20112;-67
2023/09/05 04:42:21;;;;;;;19.15;12.05;;;11.60;99.90;;;;;;5016823;28;20132;-67
2023/09/05 04:44:47;;;;;;;19.73;11.85;;;11.60;99.90;;;;;;5041150;28;20059;-67
2023/09/05 04:47:28;;;;;;;18.58;11.48;;;11.60;99.90;;;;;;5029289;28;20140;-67
2023/09/05 04:49:56;;;;;;;15.40;10.88;;;11.70;99.90;;;;;;5029917;28;20582;-67
2023/09/05 04:52:24;;;;;;;16.02;10.73;;;11.70;99.90;;;;;;5034119;28;20409;-68
2023/09/05 04:54:50;;;;;;;16.27;10.40;;;11.70;99.90;;;;;;5025443;28;20137;-67
2023/09/05 04:57:16;;;;;;;15.23;10.73;;;11.70;99.90;;;;;;5042132;28;20416;-67
2023/09/05 04:59:47;;;;;;;15.43;9.95;;;11.70;99.90;;;;;;5014719;28;20054;-67
2023/09/05 05:02:13;;;;;;;15.88;10.52;;;11.60;99.90;;;;;;5028052;28;20049;-68
2023/09/05 05:04:40;;;;;;;15.90;11.00;;;11.60;99.90;;;;;;5034626;28;20392;-67
2023/09/05 05:07:07;;;;;;;15.55;10.70;;;11.60;99.90;;;;;;5039640;28;20094;-67
2023/09/05 05:09:32;;;;;;;19.80;11.88;;;11.60;99.90;;;;;;5039143;28;20476;-67
2023/09/05 05:11:59;;;;;;;17.23;11.85;;;11.60;99.90;;;;;;5032272;28;20067;-67
2023/09/05 05:14:24;;;;;;;16.85;12.00;;;11.60;99.90;;;;;;5036183;28;20086;-67
2023/09/05 05:16:50;;;;;;;17.20;12.25;;;11.60;99.90;;;;;;5045693;28;20144;-67
2023/09/05 05:19:15;;;;;;;18.55;11.55;;;11.60;99.90;;;;;;5032872;28;20520;-67
2023/09/05 05:21:41;;;;;;;18.35;11.15;;;11.60;99.90;;;;;;5014356;28;20665;-68
2023/09/05 05:24:07;;;;;;;18.55;11.20;;;11.70;99.90;;;;;;5034302;28;20116;-67
2023/09/05 05:26:33;;;;;;;20.63;13.63;;;11.70;99.90;;;;;;5043719;28;20049;-67
2023/09/05 05:28:59;;;;;;;19.00;12.57;;;11.70;99.90;;;;;;5035839;28;20041;-67
2023/09/05 05:31:25;;;;;;;18.58;12.70;;;11.90;99.90;;;;;;5037753;28;20525;-67
2023/09/05 05:33:51;;;;;;;20.20;13.55;;;11.90;99.90;;;;;;5020985;28;20060;-67
2023/09/05 05:36:17;;;;;;;21.63;13.95;;;12.00;99.90;;;;;;5033817;28;20037;-67
2023/09/05 05:38:42;;;;;;;24.45;14.68;;;12.00;99.90;;;;;;5026490;28;20514;-67
2023/09/05 05:41:09;;;;;;;20.63;13.35;;;12.10;99.90;;;;;;5030041;28;20086;-67
2023/09/05 05:43:39;;;;;;;20.08;14.18;;;12.20;99.90;;;;;;5024949;28;20377;-67
2023/09/05 05:46:04;;;;;;;23.02;15.52;;;12.30;99.90;;;;;;5027459;28;20457;-67
2023/09/05 05:48:30;;;;;;;24.27;16.15;;;12.40;99.90;;;;;;5037626;28;20050;-67
2023/09/05 05:50:56;;;;;;;23.05;16.05;;;12.50;99.90;;;;;;5031822;28;20042;-67
2023/09/05 05:53:22;;;;;;;24.77;16.25;;;12.60;99.90;;;;;;5035446;28;20134;-68
2023/09/05 05:55:48;;;;;;;27.10;17.73;;;12.70;99.90;;;;;;5042961;28;20041;-67
2023/09/05 05:58:15;;;;;;;24.85;16.67;;;12.80;99.90;;;;;;5036164;28;20040;-67
2023/09/05 06:00:50;;;;;;;24.77;17.95;;;13.00;99.90;;;;;;5036865;28;20052;-67
2023/09/05 06:03:30;;;;;;;30.05;17.67;;;13.10;99.90;;;;;;5070534;28;20485;-67
2023/09/05 06:05:56;;;;;;;26.98;17.35;;;13.20;99.90;;;;;;5061398;28;20472;-66
2023/09/05 06:08:22;;;;;;;25.33;15.95;;;13.30;99.90;;;;;;5060034;28;20491;-67
2023/09/05 06:10:48;;;;;;;25.13;15.57;;;13.40;99.90;;;;;;5059276;28;20070;-67
2023/09/05 06:13:14;;;;;;;24.42;16.33;;;13.50;99.90;;;;;;5054904;28;20048;-67
2023/09/05 06:15:40;;;;;;;25.23;16.10;;;13.60;99.90;;;;;;5059747;28;20047;-67
2023/09/05 06:18:08;;;;;;;24.55;16.10;;;13.70;99.90;;;;;;5062081;28;20106;-67
2023/09/05 06:20:34;;;;;;;24.05;14.88;;;13.80;99.90;;;;;;5060997;28;20419;-66
2023/09/05 06:23:00;;;;;;;23.33;15.13;;;13.90;99.90;;;;;;5063786;28;20043;-67
2023/09/05 06:25:27;;;;;;;22.02;15.88;;;14.10;99.90;;;;;;5058223;28;20087;-67
2023/09/05 06:27:52;;;;;;;24.38;15.02;;;14.20;99.90;;;;;;5064611;28;20052;-67
2023/09/05 06:30:18;;;;;;;21.75;14.88;;;14.30;99.90;;;;;;5059281;28;20037;-68
2023/09/05 06:32:44;;;;;;;22.05;13.30;;;14.50;99.90;;;;;;5062326;28;20037;-67
2023/09/05 06:35:09;;;;;;;18.25;13.68;;;14.80;99.90;;;;;;5060296;28;20515;-68
2023/09/05 06:37:36;;;;;;;20.27;12.63;;;15.10;99.90;;;;;;5060817;28;20071;-68
2023/09/05 06:40:09;;;;;;;16.30;11.45;;;15.40;99.90;;;;;;5062074;28;20106;-69
2023/09/05 06:42:39;;;;;;;15.38;10.73;;;15.70;99.90;;;;;;5061535;28;20073;-69
2023/09/05 06:45:05;;;;;;;15.45;9.90;;;16.00;99.90;;;;;;5060435;28;20036;-68
2023/09/05 06:47:31;;;;;;;13.20;9.70;;;16.20;99.90;;;;;;5060399;28;20039;-68
2023/09/05 06:49:56;;;;;;;11.75;8.70;;;16.50;99.90;;;;;;5043342;28;20037;-68
2023/09/05 06:52:22;;;;;;;11.57;8.85;;;16.80;99.90;;;;;;5064369;28;20544;-68
2023/09/05 06:54:48;;;;;;;10.77;8.82;;;17.10;99.90;;;;;;5061118;28;20036;-68
2023/09/05 06:57:16;;;;;;;10.18;7.75;;;17.30;99.90;;;;;;5064042;28;20056;-69
2023/09/05 06:59:42;;;;;;;12.45;8.55;;;17.50;99.90;;;;;;5056495;28;20044;-69
2023/09/05 07:02:08;;;;;;;12.63;7.95;;;17.80;99.90;;;;;;5023237;28;22818;-68
2023/09/05 07:04:36;;;;;;;9.40;8.43;;;18.00;99.90;;;;;;5059207;28;20411;-68
2023/09/05 07:07:03;;;;;;;11.00;7.97;;;18.20;99.90;;;;;;5062376;28;20103;-69
2023/09/05 07:09:29;;;;;;;8.30;7.10;;;18.40;99.90;;;;;;5060217;28;20136;-68
2023/09/05 07:11:55;;;;;;;9.23;6.85;;;18.70;99.90;;;;;;5052283;28;20122;-69
2023/09/05 07:14:21;;;;;;;9.13;7.07;;;18.80;99.90;;;;;;5041629;28;20057;-69
2023/09/05 07:16:46;;;;;;;7.53;5.97;;;19.00;99.90;;;;;;5048223;28;20033;-69
2023/09/05 07:19:12;;;;;;;7.32;6.35;;;19.20;99.90;;;;;;5048350;28;20068;-69
2023/09/05 07:21:40;;;;;;;9.23;6.85;;;19.40;99.90;;;;;;5024825;28;20123;-71
2023/09/05 07:24:08;;;;;;;9.00;6.85;;;19.60;99.90;;;;;;5022681;28;20438;-68
2023/09/05 07:26:34;;;;;;;7.35;6.07;;;19.80;99.90;;;;;;5039336;28;20056;-70
2023/09/05 07:28:59;;;;;;;8.80;6.70;;;20.10;99.90;;;;;;5036058;28;20038;-68
2023/09/05 07:31:26;;;;;;;11.48;6.80;;;20.20;98.60;;;;;;5034309;28;20049;-69
2023/09/05 07:33:51;;;;;;;10.82;7.43;;;20.40;98.30;;;;;;5048291;28;20106;-69
2023/09/05 07:36:17;;;;;;;9.18;7.32;;;20.60;98.20;;;;;;5047599;28;20045;-69
2023/09/05 07:38:42;;;;;;;8.30;6.82;;;20.80;97.80;;;;;;5048327;28;20040;-69
2023/09/05 07:41:09;;;;;;;9.93;6.75;;;21.00;96.40;;;;;;5050821;28;20496;-70
2023/09/05 07:43:35;;;;;;;8.48;6.53;;;21.20;95.50;;;;;;5048823;28;20037;-70
2023/09/05 07:46:01;;;;;;;7.85;6.22;;;21.30;94.60;;;;;;5047544;28;20033;-69
2023/09/05 07:48:26;;;;;;;9.38;6.75;;;21.50;93.60;;;;;;5033764;28;20041;-70
2023/09/05 07:51:03;;;;;;;10.15;5.70;;;21.40;93.50;;;;;;5012592;28;20052;-68
2023/09/05 07:53:30;;;;;;;6.78;5.95;;;21.40;91.30;;;;;;5030838;28;20049;-67
2023/09/05 07:55:55;;;;;;;9.85;7.38;;;21.30;92.50;;;;;;5030306;28;20037;-70
2023/09/05 07:58:21;;;;;;;7.43;6.72;;;21.30;92.00;;;;;;5049969;28;20041;-70
2023/09/05 08:00:47;;;;;;;8.88;6.95;;;21.20;91.70;;;;;;5028195;28;20497;-70
2023/09/05 08:03:13;;;;;;;7.15;6.25;;;21.10;90.90;;;;;;5036113;28;20146;-70
2023/09/05 08:05:39;;;;;;;7.22;6.32;;;21.20;90.60;;;;;;5048253;28;20087;-70
2023/09/05 08:08:05;;;;;;;7.85;6.28;;;21.10;90.50;;;;;;5047611;28;20581;-70
2023/09/05 08:10:31;;;;;;;8.65;6.43;;;21.10;90.00;;;;;;5056449;28;20499;-70
2023/09/05 08:12:56;;;;;;;7.57;5.72;;;21.10;89.70;;;;;;5070125;28;20448;-70
2023/09/05 08:15:22;;;;;;;7.90;5.57;;;21.30;89.80;;;;;;5042014;28;20053;-70
2023/09/05 08:17:48;;;;;;;9.10;5.82;;;21.30;89.10;;;;;;5062197;28;20039;-70
2023/09/05 08:20:16;;;;;;;7.05;5.28;;;21.50;88.20;;;;;;5045338;28;20084;-70
2023/09/05 08:22:44;;;;;;;10.23;6.05;;;21.70;86.90;;;;;;5033724;28;20041;-69
2023/09/05 08:25:10;;;;;;;9.13;4.70;;;22.10;85.30;;;;;;5031864;28;20487;-69
2023/09/05 08:27:35;;;;;;;7.15;5.03;;;22.70;83.80;;;;;;5030298;28;20116;-71
2023/09/05 08:30:01;;;;;;;6.45;4.72;;;23.40;81.70;;;;;;5010076;28;20465;-72
2023/09/05 08:32:28;;;;;;;5.18;4.32;;;23.80;78.80;;;;;;5031038;28;20037;-71
2023/09/05 08:34:54;;;;;;;6.13;4.38;;;24.40;76.00;;;;;;5046025;28;20657;-71
2023/09/05 08:37:20;;;;;;;6.07;4.05;;;25.10;74.40;;;;;;5028038;28;20053;-72
2023/09/05 08:39:46;;;;;;;5.85;4.40;;;25.60;73.80;;;;;;5027630;28;20091;-71
2023/09/05 08:42:11;;;;;;;4.60;4.10;;;26.00;71.80;;;;;;5028445;28;20585;-71
2023/09/05 08:44:42;;;;;;;4.82;3.50;;;26.30;70.30;;;;;;5043355;28;20037;-71
2023/09/05 08:47:08;;;;;;;5.30;3.80;;;26.60;68.60;;;;;;5048775;28;20116;-74
2023/09/05 08:49:33;;;;;;;5.18;4.05;;;27.10;67.50;;;;;;5044647;28;20119;-70
2023/09/05 08:52:02;;;;;;;6.05;3.92;;;27.40;66.40;;;;;;5047336;28;20037;-70
2023/09/05 08:54:29;;;;;;;5.50;3.95;;;27.50;64.60;;;;;;5027871;28;20046;-72
2023/09/05 08:56:56;;;;;;;3.97;3.55;;;27.60;65.00;;;;;;5029406;28;20065;-72
2023/09/05 08:59:25;;;;;;;5.90;4.40;;;27.70;64.40;;;;;;5047358;28;20045;-71
2023/09/05 09:01:50;;;;;;;7.57;4.00;;;27.10;64.20;;;;;;5042739;28;20049;-70
2023/09/05 09:04:19;;;;;;;4.57;3.63;;;26.70;65.20;;;;;;5051908;28;20051;-72
2023/09/05 09:06:53;;;;;;;3.72;3.25;;;26.30;65.90;;;;;;5041869;28;20029;-71
2023/09/05 09:09:36;;;;;;;3.67;3.35;;;26.00;65.20;;;;;;5039809;28;20036;-72
2023/09/05 09:12:02;;;;;;;4.85;3.30;;;25.60;64.90;;;;;;5032958;28;20037;-71
2023/09/05 09:14:27;;;;;;;5.13;3.25;;;25.50;67.20;;;;;;5025255;28;20078;-71
2023/09/05 09:16:53;;;;;;;3.65;3.10;;;25.50;66.10;;;;;;5045035;28;20068;-71
2023/09/05 09:19:19;;;;;;;3.47;2.80;;;25.60;66.10;;;;;;5035955;28;20037;-72
2023/09/05 09:21:47;;;;;;;4.28;2.80;;;25.70;65.10;;;;;;5039719;28;20397;-71
2023/09/05 09:24:15;;;;;;;5.03;3.17;;;25.80;64.40;;;;;;5049121;28;20549;-69
2023/09/05 09:26:42;;;;;;;4.05;2.70;;;25.70;64.10;;;;;;5033925;28;20098;-72
2023/09/05 09:29:08;;;;;;;4.32;2.67;;;25.60;65.10;;;;;;5041373;28;20456;-69
2023/09/05 09:31:34;;;;;;;4.07;3.42;;;25.50;65.60;;;;;;5030620;28;20064;-71
2023/09/05 09:34:00;;;;;;;3.33;2.08;;;25.30;65.70;;;;;;5050881;28;20433;-71
2023/09/05 09:36:34;;;;;;;3.83;2.17;;;25.30;66.80;;;;;;5029802;28;20045;-72
2023/09/05 09:39:07;;;;;;;2.55;1.83;;;25.20;65.90;;;;;;5035939;28;20053;-71
2023/09/05 09:41:33;;;;;;;5.03;2.25;;;25.20;63.80;;;;;;5045318;28;20045;-70
2023/09/05 09:43:58;;;;;;;5.05;2.50;;;25.10;63.80;;;;;;5047212;28;20047;-71
2023/09/05 09:46:24;;;;;;;3.10;2.10;;;25.10;63.60;;;;;;5045593;28;20036;-69
2023/09/05 09:48:52;;;;;;;3.85;2.40;;;25.00;63.90;;;;;;5046997;28;20033;-69
2023/09/05 09:51:23;;;;;;;2.88;1.85;;;25.10;63.40;;;;;;5044104;28;20040;-70
2023/09/05 09:53:50;;;;;;;3.35;1.90;;;25.00;63.50;;;;;;5026564;28;20033;-69
2023/09/05 09:56:19;;;;;;;3.58;2.20;;;25.10;63.70;;;;;;5040939;28;20080;-71
2023/09/05 09:58:47;;;;;;;3.17;1.83;;;25.10;63.70;;;;;;5046440;28;20037;-72
2023/09/05 10:01:14;;;;;;;3.45;2.00;;;25.20;63.80;;;;;;5043314;28;20393;-72
2023/09/05 10:03:41;;;;;;;2.50;1.80;;;25.30;63.70;;;;;;5047823;28;20043;-71
2023/09/05 10:06:09;;;;;;;3.38;2.10;;;25.50;63.20;;;;;;5028540;28;20503;-69
2023/09/05 10:08:36;;;;;;;2.17;1.98;;;25.60;62.60;;;;;;5048399;28;20124;-72
2023/09/05 10:11:02;;;;;;;2.53;1.98;;;25.60;62.90;;;;;;5045614;28;20131;-72
2023/09/05 10:13:32;;;;;;;2.00;1.80;;;25.60;63.30;;;;;;5047674;28;20424;-69
2023/09/05 10:16:01;;;;;;;2.67;2.00;;;25.70;63.10;;;;;;5038919;28;20048;-72
2023/09/05 10:18:28;;;;;;;3.90;1.75;;;25.60;62.70;;;;;;5051190;28;20447;-72
2023/09/05 10:20:55;;;;;;;3.65;1.88;;;25.70;61.60;;;;;;5043625;28;20049;-71
2023/09/05 10:23:23;;;;;;;2.97;1.92;;;25.70;61.60;;;;;;5026323;28;20120;-71
2023/09/05 10:25:50;;;;;;;4.47;1.92;;;25.70;62.10;;;;;;5033491;28;20109;-70
2023/09/05 10:28:15;;;;;;;4.13;2.40;;;25.70;63.00;;;;;;5046569;28;20040;-73
2023/09/05 10:30:47;;;;;;;4.38;2.20;;;25.90;62.80;;;;;;5030146;28;20364;-70
2023/09/05 10:33:13;;;;;;;2.13;1.80;;;25.90;62.90;;;;;;5045207;28;20098;-72
2023/09/05 10:35:44;;;;;;;3.38;2.45;;;25.90;62.90;;;;;;5025451;28;20045;-70
2023/09/05 10:38:11;;;;;;;5.32;1.92;;;25.80;61.70;;;;;;5040947;28;20052;-70
2023/09/05 10:40:37;;;;;;;4.35;2.10;;;25.80;62.30;;;;;;5047175;28;20132;-71
2023/09/05 10:43:05;;;;;;;3.78;2.10;;;25.80;62.60;;;;;;5036047;28;20099;-70
2023/09/05 10:45:35;;;;;;;3.13;2.05;;;25.80;62.40;;;;;;5024201;28;20046;-70
2023/09/05 10:48:15;;;;;;;2.20;1.67;;;25.80;61.90;;;;;;5027938;28;20421;-70
2023/09/05 10:51:06;;;;;;;2.95;2.03;;;25.80;61.70;;;;;;5032770;28;20398;-70
2023/09/05 10:53:34;;;;;;;3.15;1.70;;;25.80;63.00;;;;;;5038755;28;20535;-70
2023/09/05 10:56:00;;;;;;;2.83;1.60;;;25.90;62.80;;;;;;5048487;28;20076;-71
2023/09/05 10:58:43;;;;;;;2.22;2.03;;;25.90;61.90;;;;;;5055203;28;20041;-72
2023/09/05 11:01:29;;;;;;;2.40;1.50;;;26.00;62.00;;;;;;5031310;28;20151;-70
2023/09/05 11:04:00;;;;;;;3.70;1.63;;;26.10;62.20;;;;;;5035100;28;20148;-70
2023/09/05 11:06:25;;;;;;;2.75;1.60;;;26.20;60.40;;;;;;5038496;28;20084;-70
2023/09/05 11:08:59;;;;;;;2.30;1.70;;;26.20;60.20;;;;;;5036859;28;20069;-69
2023/09/05 11:11:25;;;;;;;3.08;1.90;;;26.20;59.90;;;;;;5031368;28;20060;-70
2023/09/05 11:13:51;;;;;;;2.40;1.52;;;26.20;60.40;;;;;;5052602;28;20425;-68
2023/09/05 11:16:17;;;;;;;2.90;1.75;;;26.20;61.20;;;;;;5048188;28;20041;-69
2023/09/05 11:18:46;;;;;;;2.80;1.80;;;26.20;60.90;;;;;;5049989;28;20127;-71
2023/09/05 11:21:22;;;;;;;3.70;1.80;;;26.20;60.40;;;;;;5048891;28;20109;-70
2023/09/05 11:23:54;;;;;;;2.97;2.05;;;26.20;60.70;;;;;;5051941;28;20098;-68
2023/09/05 11:26:21;;;;;;;3.15;2.15;;;26.30;61.40;;;;;;5051211;28;20095;-71
2023/09/05 11:28:48;;;;;;;2.78;1.83;;;26.40;60.70;;;;;;5047625;28;20033;-70
2023/09/05 11:31:15;;;;;;;2.17;1.60;;;26.40;60.60;;;;;;5061582;28;20079;-69
2023/09/05 11:33:41;;;;;;;2.40;1.92;;;26.40;59.90;;;;;;5034979;28;20037;-70
2023/09/05 11:36:08;;;;;;;2.60;1.85;;;26.40;59.60;;;;;;5046638;28;20033;-67
2023/09/05 11:38:52;;;;;;;3.63;1.90;;;26.40;60.20;;;;;;5041458;28;20068;-68
2023/09/05 11:41:19;;;;;;;3.55;1.73;;;26.50;59.00;;;;;;5048104;28;20099;-71
2023/09/05 11:43:52;;;;;;;2.88;1.77;;;26.50;59.80;;;;;;5050386;28;20098;-66
2023/09/05 11:46:19;;;;;;;2.47;1.85;;;26.60;59.30;;;;;;5029446;28;20120;-71
2023/09/05 11:48:46;;;;;;;2.33;1.75;;;26.60;60.00;;;;;;5045494;28;20041;-69
2023/09/05 11:51:14;;;;;;;4.47;2.10;;;26.60;60.20;;;;;;5040487;28;20041;-70
2023/09/05 11:53:43;;;;;;;2.90;1.70;;;26.70;60.50;;;;;;5040916;28;20041;-67
2023/09/05 11:56:10;;;;;;;2.67;1.65;;;26.90;59.80;;;;;;5049315;28;20037;-70
2023/09/05 11:58:36;;;;;;;1.88;1.50;;;26.90;58.80;;;;;;5043182;28;20465;-69
2023/09/05 12:01:02;;;;;;;3.08;1.60;;;26.90;58.50;;;;;;5025844;28;20069;-70
2023/09/05 12:03:36;;;;;;;4.35;1.65;;;27.00;57.80;;;;;;5044160;28;20113;-71
2023/09/05 12:06:02;;;;;;;2.42;1.70;;;27.10;57.50;;;;;;5033658;28;20044;-69
2023/09/05 12:08:27;;;;;;;2.00;1.50;;;27.10;56.90;;;;;;5031702;28;20032;-70
2023/09/05 12:10:53;;;;;;;2.85;1.27;;;27.10;57.40;;;;;;5046588;28;20441;-69
2023/09/05 12:13:19;;;;;;;1.60;1.30;;;27.20;57.80;;;;;;5034047;28;20037;-70
2023/09/05 12:15:46;;;;;;;1.95;1.33;;;27.30;58.20;;;;;;5048379;28;20045;-68
2023/09/05 12:18:22;;;;;;;2.55;1.25;;;27.40;57.40;;;;;;5045255;28;20441;-67
2023/09/05 12:21:00;;;;;;;2.33;1.50;;;27.50;54.60;;;;;;5050557;28;20057;-67
2023/09/05 12:23:29;;;;;;;2.47;1.17;;;27.60;53.80;;;;;;5038330;28;20036;-69
2023/09/05 12:25:56;;;;;;;2.40;1.30;;;27.70;54.30;;;;;;5030449;28;20044;-68
2023/09/05 12:28:22;;;;;;;3.30;1.30;;;27.80;54.90;;;;;;5048045;28;20037;-67
2023/09/05 12:30:54;;;;;;;1.30;1.15;;;27.90;54.30;;;;;;5038622;28;20048;-69
2023/09/05 12:33:20;;;;;;;1.60;1.30;;;28.00;53.90;;;;;;5048773;28;20103;-69
2023/09/05 12:35:46;;;;;;;1.20;1.10;;;28.00;54.50;;;;;;5037203;28;20045;-69
2023/09/05 12:38:13;;;;;;;1.65;1.35;;;28.30;53.80;;;;;;5035995;28;20056;-69